| Date | Temp | Humidity | Rainfall | Dew Point | Wind Direction | Wind Speed | Wind Pressure | Condition | Visibility |
|---|---|---|---|---|---|---|---|---|---|
| 2025-05-25 11:02:13 | 32 | 64 | 23 | 120 | 3.8 | 1010 | Partly Cloudy (Day) | 20KM | |
| 2025-05-25 09:58:20 | 30 | 69 | 0.00 | 24 | 160 | 5.7 | 1010 | Partly Cloudy (Day) | 20 km |
| 2025-05-25 08:59:24 | 27 | 82 | 0.00 | 24 | 190 | 7.6 | 1010 | Partly Cloudy (Day) | 20 km |
| 2025-05-25 07:59:43 | 26 | 90 | 0.00 | 24 | 230 | 5.7 | 1010 | Cloudy | 15 KM |
| 2025-05-25 06:58:13 | 25 | 92 | 0.0 | 24 | 180 | 5.7 | 1009 | Cloudy | 10 KM |
| 2025-05-25 05:58:30 | 25 | 94 | 0.00 | 24 | 180 | 7.6 | 1008 | Cloudy | 10 KM |
| 2025-05-25 05:02:18 | 25 | 94 | 0.00 | 24 | 260 | 3.8 | 1008 | Cloudy | 10 KM |
| 2025-05-25 03:01:39 | 26 | 95 | 0.00 | 25 | 170 | 7.6 | 1008 | Cloudy | 10 KM |
| 2025-05-25 02:00:37 | 26 | 93 | 0.00 | 25 | 150 | 3.8 | 1009 | Rain | 10KM |
| 2025-05-25 01:00:22 | 26 | 95 | 0.00 | 25 | 140 | 3.8 | 1010 | Rain | 9KM |
| 2025-05-25 00:00:50 | 26 | 96 | 0.00 | 25 | 080 | 1.9 | 1010 | Rain | 8KM |
| 2025-05-24 23:02:52 | 26 | 95 | 0.00 | 25 | 090 | 3.8 | 1010 | Night Shower | 8KM |
| 2025-05-24 21:59:13 | 26 | 96 | 0.00 | 25 | 140 | 5.7 | 1010 | Thundershowers | 8KM |
| 2025-05-24 21:00:31 | 26 | 94 | 25 | 140 | 7.6 | 1010 | Thundershowers | 7 KM | |
| 2025-05-24 20:02:22 | 27 | 88 | 25 | 150 | 9.5 | 1010 | Thundershowers | 10 KM | |
| 2025-05-24 18:59:59 | 29 | 79 | 25 | 240 | 5.7 | 1009 | Thunderstorm | 10 KM | |
| 2025-05-24 18:04:22 | 30 | 74 | 26 | 280 | 13.3 | 1007 | Thunderstorm | 15 KM | |
| 2025-05-24 17:06:30 | 31 | 74 | 0.00 | 26 | 260 | 19.0 | 1007 | Thunderstorm | 20 km |
| 2025-05-24 15:57:27 | 32 | 65 | 0.00 | 24 | 290 | 22.8 | 1006 | Partly Cloudy (Day) | 20 km |
| 2025-05-24 14:57:41 | 31 | 68 | 0.00 | 25 | 330 | 19.0 | 1007 | Partly Cloudy (Day) | 15 km |
| 2025-05-24 13:59:33 | 31 | 66 | 0.00 | 24 | 340 | 13.3 | 1007 | Thundershowers | 10 km |
| 2025-05-24 13:01:00 | 31 | 65 | 0.00 | 25 | 040 | 7.6 | 1008 | Distant showers | 10KM |
| 2025-05-24 12:00:13 | 33 | 60 | 0.00 | 24 | 360 | 13.3 | 1008 | Distant showers | 10KM |
| 2025-05-24 11:00:02 | 32 | 61 | 0.00 | 24 | 190 | 3.8 | 1009 | Partly Cloudy (Day) | 15KM |
| 2025-05-24 09:59:55 | 32 | 67 | 0.00 | 25 | 080 | 5.7 | 1009 | Partly Cloudy (Day) | 15KM |